createdAt,value
2023-01-29T00:02:06.186Z,-0.17
2023-01-29T00:04:35.560Z,-0.16
2023-01-29T00:07:03.488Z,-0.10
2023-01-29T00:09:32.103Z,-0.24
2023-01-29T00:12:00.110Z,-0.12
2023-01-29T00:14:28.487Z,-0.22
2023-01-29T00:16:56.526Z,-0.13
2023-01-29T00:19:24.527Z,-0.18
2023-01-29T00:21:54.009Z,-0.21
2023-01-29T00:24:22.619Z,-0.23
2023-01-29T00:26:51.258Z,-0.35
2023-01-29T00:29:19.664Z,-0.44
2023-01-29T00:31:48.334Z,-0.55
2023-01-29T00:34:16.511Z,-0.52
2023-01-29T00:36:45.689Z,-0.54
2023-01-29T00:39:15.398Z,-0.61
2023-01-29T00:42:00.861Z,-0.59
2023-01-29T00:44:46.248Z,-0.53
2023-01-29T00:47:28.127Z,-0.54
2023-01-29T00:49:56.706Z,-0.57
2023-01-29T00:52:27.433Z,-0.53
2023-01-29T00:54:59.032Z,-0.56
2023-01-29T00:57:28.672Z,-0.48
2023-01-29T00:59:56.691Z,-0.43
2023-01-29T01:02:42.386Z,-0.45
2023-01-29T01:05:18.266Z,-0.40
2023-01-29T01:07:47.464Z,-0.39
2023-01-29T01:10:24.341Z,-0.37
2023-01-29T01:12:55.715Z,-0.45
2023-01-29T01:15:24.893Z,-0.31
2023-01-29T01:17:57.055Z,-0.32
2023-01-29T01:20:25.168Z,-0.31
2023-01-29T01:22:54.835Z,-0.23
2023-01-29T01:25:25.375Z,-0.26
2023-01-29T01:27:54.141Z,-0.34
2023-01-29T01:30:22.611Z,-0.32
2023-01-29T01:32:50.999Z,-0.26
2023-01-29T01:35:19.509Z,-0.21
2023-01-29T01:37:47.416Z,-0.25
2023-01-29T01:40:18.499Z,-0.28
2023-01-29T01:42:49.370Z,-0.29
2023-01-29T01:45:23.298Z,-0.19
2023-01-29T01:47:55.579Z,-0.13
2023-01-29T01:50:28.113Z,-0.13
2023-01-29T01:53:00.914Z,-0.14
2023-01-29T01:55:31.389Z,-0.09
2023-01-29T01:58:05.711Z,-0.16
2023-01-29T02:00:33.747Z,-0.24
2023-01-29T02:03:20.811Z,-0.06
2023-01-29T02:06:06.565Z,-0.10
2023-01-29T02:09:01.231Z,-0.15
2023-01-29T02:11:29.266Z,-0.10
2023-01-29T02:13:59.096Z,-0.07
2023-01-29T02:16:27.394Z,-0.13
2023-01-29T02:18:55.539Z,-0.03
2023-01-29T02:21:51.868Z,-0.11
2023-01-29T02:25:09.669Z,-0.03
2023-01-29T02:28:02.368Z,-0.08
2023-01-29T02:30:38.297Z,-0.09
2023-01-29T02:33:15.157Z,-0.02
2023-01-29T02:35:47.670Z,0.02
2023-01-29T02:38:24.543Z,-0.03
2023-01-29T02:40:59.139Z,-0.10
2023-01-29T02:43:38.570Z,-0.02
2023-01-29T02:46:16.900Z,-0.05
2023-01-29T02:48:51.452Z,-0.01
2023-01-29T02:51:25.474Z,0.08
2023-01-29T02:54:01.019Z,-0.05
2023-01-29T02:56:34.323Z,-0.01
2023-01-29T02:59:09.182Z,0.09
2023-01-29T03:01:42.147Z,0.14
2023-01-29T03:04:15.995Z,0.22
2023-01-29T03:06:49.405Z,0.21
2023-01-29T03:09:23.978Z,0.19
2023-01-29T03:11:55.916Z,0.13
2023-01-29T03:14:52.469Z,0.08
2023-01-29T03:17:23.879Z,0.15
2023-01-29T03:19:52.295Z,0.11
2023-01-29T03:22:23.191Z,0.12
2023-01-29T03:25:12.482Z,0.17
2023-01-29T03:28:03.553Z,0.16
2023-01-29T03:30:52.670Z,0.26
2023-01-29T03:33:22.500Z,0.19
2023-01-29T03:35:54.813Z,0.11
2023-01-29T03:38:22.749Z,0.20
2023-01-29T03:40:58.175Z,0.06
2023-01-29T03:43:33.334Z,0.17
2023-01-29T03:46:09.204Z,0.03
2023-01-29T03:48:40.157Z,0.20
2023-01-29T03:51:23.726Z,0.12
2023-01-29T03:53:57.494Z,0.12
2023-01-29T03:56:38.194Z,0.22
2023-01-29T03:59:12.173Z,0.02
2023-01-29T04:01:48.723Z,0.10
2023-01-29T04:04:22.232Z,0.10
2023-01-29T04:06:53.173Z,0.15
2023-01-29T04:09:25.268Z,0.14
2023-01-29T04:11:59.448Z,0.10
2023-01-29T04:14:27.492Z,0.14
2023-01-29T04:17:01.487Z,0.18
2023-01-29T04:19:29.749Z,0.11
2023-01-29T04:22:05.197Z,0.27
2023-01-29T04:24:33.810Z,0.30
2023-01-29T04:27:15.895Z,0.11
2023-01-29T04:29:57.983Z,0.13
2023-01-29T04:32:33.407Z,0.16
2023-01-29T04:35:05.854Z,0.15
2023-01-29T04:37:41.553Z,0.27
2023-01-29T04:40:24.412Z,0.26
2023-01-29T04:43:01.312Z,0.20
2023-01-29T04:45:45.517Z,0.17
2023-01-29T04:48:23.478Z,0.17
2023-01-29T04:51:04.844Z,0.19
2023-01-29T04:53:42.352Z,0.17
2023-01-29T04:56:20.730Z,0.22
2023-01-29T04:58:53.111Z,0.20
2023-01-29T05:01:25.768Z,0.33
2023-01-29T05:03:57.258Z,0.26
2023-01-29T05:06:26.640Z,0.20
2023-01-29T05:08:55.919Z,0.25
2023-01-29T05:11:26.330Z,0.36
2023-01-29T05:13:55.146Z,0.28
2023-01-29T05:16:27.849Z,0.31
2023-01-29T05:18:57.271Z,0.28
2023-01-29T05:21:25.997Z,0.30
2023-01-29T05:24:19.150Z,0.27
2023-01-29T05:27:08.054Z,0.25
2023-01-29T05:29:36.114Z,0.34
2023-01-29T05:32:04.495Z,0.38
2023-01-29T05:34:34.316Z,0.46
2023-01-29T05:37:02.314Z,0.43
2023-01-29T05:39:30.351Z,0.41
2023-01-29T05:41:58.511Z,0.51
2023-01-29T05:44:26.610Z,0.48
2023-01-29T05:46:54.465Z,0.56
2023-01-29T05:49:22.724Z,0.52
2023-01-29T05:51:51.995Z,0.48
2023-01-29T05:54:19.950Z,0.53
2023-01-29T05:56:48.231Z,0.48
2023-01-29T05:59:16.654Z,0.49
2023-01-29T06:01:44.710Z,0.51
2023-01-29T06:04:12.767Z,0.54
2023-01-29T06:06:40.864Z,0.60
2023-01-29T06:09:11.859Z,0.59
2023-01-29T06:11:39.742Z,0.54
2023-01-29T06:14:07.676Z,0.55
2023-01-29T06:16:35.627Z,0.53
2023-01-29T06:19:03.532Z,0.58
2023-01-29T06:21:31.445Z,0.59
2023-01-29T06:23:59.360Z,0.59
2023-01-29T06:26:28.900Z,0.57
2023-01-29T06:28:57.039Z,0.60
2023-01-29T06:31:40.483Z,0.56
2023-01-29T06:34:08.952Z,0.55
2023-01-29T06:36:37.331Z,0.64
2023-01-29T06:39:05.912Z,0.69
2023-01-29T06:41:36.370Z,0.63
2023-01-29T06:44:04.320Z,0.67
2023-01-29T06:46:32.439Z,0.71
2023-01-29T06:49:01.566Z,0.62
2023-01-29T06:51:29.410Z,0.69
2023-01-29T06:53:57.457Z,0.64
2023-01-29T06:56:25.843Z,0.66
2023-01-29T06:58:55.354Z,0.79
2023-01-29T07:01:34.993Z,0.71
2023-01-29T07:04:04.272Z,0.79
2023-01-29T07:06:32.602Z,0.86
2023-01-29T07:09:00.464Z,0.80
2023-01-29T07:11:28.321Z,0.82
2023-01-29T07:13:57.586Z,0.72
2023-01-29T07:16:26.399Z,0.72
2023-01-29T07:18:55.000Z,0.71
2023-01-29T07:21:23.034Z,0.78
2023-01-29T07:23:50.923Z,0.80
2023-01-29T07:26:19.123Z,0.81
2023-01-29T07:28:46.984Z,0.79
2023-01-29T07:31:16.855Z,0.86
2023-01-29T07:33:45.504Z,0.88
2023-01-29T07:36:14.512Z,0.95
2023-01-29T07:38:42.483Z,0.99
2023-01-29T07:41:12.438Z,1.00
2023-01-29T07:43:40.399Z,1.00
2023-01-29T07:46:08.445Z,1.05
2023-01-29T07:48:38.001Z,1.02
2023-01-29T07:51:06.592Z,1.10
2023-01-29T07:53:34.615Z,1.12
2023-01-29T07:56:02.530Z,1.05
2023-01-29T07:58:30.448Z,1.06
2023-01-29T08:00:58.362Z,1.09
2023-01-29T08:03:26.360Z,1.06
2023-01-29T08:05:55.585Z,0.98
2023-01-29T08:08:23.531Z,1.00
2023-01-29T08:10:51.462Z,1.00
2023-01-29T08:13:19.445Z,1.00
2023-01-29T08:15:47.443Z,0.95
2023-01-29T08:18:16.177Z,0.98
2023-01-29T08:20:44.036Z,0.94
2023-01-29T08:23:15.727Z,1.00
2023-01-29T08:25:43.676Z,1.09
2023-01-29T08:28:12.470Z,1.11
2023-01-29T08:30:40.860Z,1.06
2023-01-29T08:33:08.829Z,1.08
2023-01-29T08:35:36.733Z,1.24
2023-01-29T08:38:06.169Z,1.12
2023-01-29T08:40:36.573Z,1.23
2023-01-29T08:43:09.165Z,1.19
2023-01-29T08:45:39.182Z,1.27
2023-01-29T08:48:07.718Z,1.23
2023-01-29T08:50:36.494Z,1.30
2023-01-29T08:53:07.577Z,1.44
2023-01-29T08:55:38.601Z,1.24
2023-01-29T08:58:07.360Z,1.33
2023-01-29T09:00:36.095Z,1.50
2023-01-29T09:03:04.280Z,1.48
2023-01-29T09:05:32.338Z,1.41
2023-01-29T09:08:00.409Z,1.43
2023-01-29T09:10:28.284Z,1.53
2023-01-29T09:12:57.740Z,1.56
2023-01-29T09:15:25.824Z,1.59
2023-01-29T09:17:54.036Z,1.62
2023-01-29T09:20:22.237Z,1.67
2023-01-29T09:22:56.668Z,1.77
2023-01-29T09:25:24.737Z,1.87
2023-01-29T09:27:52.805Z,2.00
2023-01-29T09:30:22.151Z,1.91
2023-01-29T09:32:53.654Z,1.94
2023-01-29T09:35:22.755Z,2.08
2023-01-29T09:37:50.903Z,2.05
2023-01-29T09:40:27.074Z,2.23
2023-01-29T09:42:59.936Z,2.28
2023-01-29T09:45:30.497Z,2.41
2023-01-29T09:48:02.300Z,2.31
2023-01-29T09:50:36.150Z,2.42
2023-01-29T09:53:09.770Z,2.32
2023-01-29T09:55:44.806Z,2.36
2023-01-29T09:58:19.232Z,2.49
2023-01-29T10:00:58.418Z,2.45
2023-01-29T10:03:43.003Z,2.43
2023-01-29T10:06:24.904Z,2.46
2023-01-29T10:09:25.057Z,2.73
2023-01-29T10:12:06.615Z,2.78
2023-01-29T10:14:44.474Z,2.78
2023-01-29T10:17:34.939Z,2.84
2023-01-29T10:20:19.947Z,2.85
2023-01-29T10:23:02.242Z,2.85
2023-01-29T10:25:30.221Z,2.80
2023-01-29T10:28:00.765Z,2.94
2023-01-29T10:30:33.270Z,2.94
2023-01-29T10:33:04.923Z,3.01
2023-01-29T10:35:36.893Z,3.16
2023-01-29T10:38:22.572Z,3.34
2023-01-29T10:40:55.934Z,3.47
2023-01-29T10:43:32.359Z,3.68
2023-01-29T10:46:11.708Z,3.85
2023-01-29T10:48:50.456Z,3.82
2023-01-29T10:51:32.429Z,3.91
2023-01-29T10:54:16.676Z,3.93
2023-01-29T10:57:00.148Z,3.93
2023-01-29T10:59:41.095Z,3.77
2023-01-29T11:02:18.843Z,3.86
2023-01-29T11:04:49.097Z,3.90
2023-01-29T11:07:21.255Z,3.97
2023-01-29T11:09:57.635Z,4.03
2023-01-29T11:12:30.897Z,4.14
2023-01-29T11:15:03.333Z,4.21
2023-01-29T11:17:35.958Z,4.15
2023-01-29T11:20:26.743Z,4.13
2023-01-29T11:22:56.702Z,4.26
2023-01-29T11:25:25.127Z,4.25
2023-01-29T11:27:56.178Z,4.01
2023-01-29T11:30:27.079Z,4.21
2023-01-29T11:33:09.791Z,4.29
2023-01-29T11:35:41.500Z,4.32
2023-01-29T11:38:19.619Z,4.29
2023-01-29T11:40:47.827Z,4.36
2023-01-29T11:43:31.606Z,4.12
2023-01-29T11:46:02.955Z,4.21
2023-01-29T11:48:42.543Z,4.06
2023-01-29T11:51:21.572Z,4.09
2023-01-29T11:53:55.023Z,4.08
2023-01-29T11:56:31.304Z,4.36
2023-01-29T11:59:00.111Z,4.41
2023-01-29T12:01:34.338Z,4.37
2023-01-29T12:04:03.763Z,4.28
2023-01-29T12:06:38.103Z,4.30
2023-01-29T12:09:15.963Z,4.22
2023-01-29T12:11:44.938Z,4.19
2023-01-29T12:14:27.910Z,4.09
2023-01-29T12:17:00.971Z,4.31
2023-01-29T12:19:36.471Z,4.29
2023-01-29T12:22:11.336Z,4.31
2023-01-29T12:24:45.439Z,4.21
2023-01-29T12:27:20.353Z,4.12
2023-01-29T12:29:53.743Z,4.03
2023-01-29T12:32:33.841Z,4.05
2023-01-29T12:35:07.325Z,4.02
2023-01-29T12:37:46.156Z,4.10
2023-01-29T12:40:16.594Z,3.91
2023-01-29T12:42:49.977Z,4.00
2023-01-29T12:45:20.789Z,4.06
2023-01-29T12:47:51.975Z,3.82
2023-01-29T12:50:23.138Z,3.88
2023-01-29T12:52:56.797Z,3.84
2023-01-29T12:55:29.069Z,3.70
2023-01-29T12:57:59.866Z,3.79
2023-01-29T13:00:32.821Z,3.73
2023-01-29T13:03:05.662Z,3.65
2023-01-29T13:05:40.719Z,3.62
2023-01-29T13:08:15.935Z,3.65
2023-01-29T13:10:47.885Z,3.66
2023-01-29T13:13:23.201Z,3.55
2023-01-29T13:15:51.224Z,3.48
2023-01-29T13:18:37.169Z,3.47
2023-01-29T13:21:06.593Z,3.43
2023-01-29T13:23:40.627Z,3.38
2023-01-29T13:26:08.968Z,3.45
2023-01-29T13:28:37.886Z,3.41
2023-01-29T13:31:18.279Z,3.38
2023-01-29T13:33:55.124Z,3.36
2023-01-29T13:36:29.110Z,3.37
2023-01-29T13:39:03.782Z,3.36
2023-01-29T13:41:41.691Z,3.20
2023-01-29T13:44:22.116Z,3.18
2023-01-29T13:46:53.208Z,3.14
2023-01-29T13:49:35.812Z,3.16
2023-01-29T13:52:27.330Z,3.18
2023-01-29T13:55:00.329Z,3.19
2023-01-29T13:57:55.972Z,3.10
2023-01-29T14:00:52.449Z,3.01
2023-01-29T14:04:05.726Z,3.07
2023-01-29T14:06:41.234Z,3.01
2023-01-29T14:09:59.323Z,2.97
2023-01-29T14:12:39.149Z,2.98
2023-01-29T14:15:21.506Z,3.11
2023-01-29T14:18:03.951Z,2.98
2023-01-29T14:20:47.250Z,2.97
2023-01-29T14:23:28.449Z,2.92
2023-01-29T14:25:57.429Z,3.08
2023-01-29T14:28:30.581Z,3.05
2023-01-29T14:30:59.084Z,3.06
2023-01-29T14:33:34.795Z,3.04
2023-01-29T14:36:13.884Z,3.15
2023-01-29T14:38:47.207Z,3.19
2023-01-29T14:41:25.467Z,3.18
2023-01-29T14:44:33.736Z,3.12
2023-01-29T14:47:01.861Z,3.16
2023-01-29T14:49:55.412Z,3.25
2023-01-29T14:52:27.983Z,3.12
2023-01-29T14:55:00.820Z,2.98
2023-01-29T14:57:31.953Z,3.06
2023-01-29T15:00:05.396Z,2.98
2023-01-29T15:02:41.023Z,3.04
2023-01-29T15:05:13.355Z,3.02
2023-01-29T15:07:48.557Z,3.01
2023-01-29T15:10:23.404Z,3.00
2023-01-29T15:12:58.216Z,3.07
2023-01-29T15:15:39.327Z,3.05
2023-01-29T15:18:10.291Z,3.01
2023-01-29T15:20:40.232Z,3.00
2023-01-29T15:23:25.453Z,3.01
2023-01-29T15:25:56.085Z,2.94
2023-01-29T15:28:24.153Z,2.86
2023-01-29T15:30:56.923Z,2.80
2023-01-29T15:33:25.045Z,2.86
2023-01-29T15:36:06.758Z,2.85
2023-01-29T15:38:35.113Z,2.93
2023-01-29T15:41:04.846Z,2.90
2023-01-29T15:43:36.464Z,2.77
2023-01-29T15:46:11.060Z,2.82
2023-01-29T15:48:41.205Z,2.72
2023-01-29T15:51:12.000Z,2.62
2023-01-29T15:53:52.544Z,2.70
2023-01-29T15:56:25.140Z,2.74
2023-01-29T15:58:54.111Z,2.66
2023-01-29T16:01:23.749Z,2.70
2023-01-29T16:03:51.967Z,2.74
2023-01-29T16:06:20.598Z,2.78
2023-01-29T16:08:52.362Z,2.68
2023-01-29T16:11:21.179Z,2.73
2023-01-29T16:13:51.440Z,2.78
2023-01-29T16:16:25.417Z,2.81
2023-01-29T16:19:00.336Z,2.79
2023-01-29T16:21:31.681Z,2.75
2023-01-29T16:24:02.086Z,2.57
2023-01-29T16:26:34.042Z,2.70
2023-01-29T16:29:06.559Z,2.61
2023-01-29T16:31:37.819Z,2.60
2023-01-29T16:34:10.144Z,2.60
2023-01-29T16:36:38.236Z,2.53
2023-01-29T16:39:15.633Z,2.62
2023-01-29T16:41:44.429Z,2.49
2023-01-29T16:44:39.414Z,2.55
2023-01-29T16:47:13.712Z,2.51
2023-01-29T16:49:54.921Z,2.54
2023-01-29T16:52:26.591Z,2.50
2023-01-29T16:54:59.951Z,2.52
2023-01-29T16:57:33.042Z,2.53
2023-01-29T17:00:04.731Z,2.42
2023-01-29T17:02:39.629Z,2.46
2023-01-29T17:05:10.958Z,2.61
2023-01-29T17:07:39.753Z,2.69
2023-01-29T17:10:09.073Z,2.63
2023-01-29T17:12:38.874Z,2.67
2023-01-29T17:15:37.475Z,2.64
2023-01-29T17:18:17.032Z,2.67
2023-01-29T17:20:45.057Z,2.60
2023-01-29T17:23:13.028Z,2.70
2023-01-29T17:25:41.291Z,2.57
2023-01-29T17:28:12.278Z,2.56
2023-01-29T17:30:40.357Z,2.52
2023-01-29T17:33:14.439Z,2.50
2023-01-29T17:35:45.621Z,2.52
2023-01-29T17:38:25.636Z,2.48
2023-01-29T17:40:57.026Z,2.40
2023-01-29T17:43:25.088Z,2.55
2023-01-29T17:45:53.052Z,2.68
2023-01-29T17:48:24.594Z,2.62
2023-01-29T17:50:54.880Z,2.63
2023-01-29T17:53:26.578Z,2.61
2023-01-29T17:55:58.568Z,2.68
2023-01-29T17:58:28.638Z,2.72
2023-01-29T18:00:56.823Z,2.76
2023-01-29T18:03:26.602Z,2.82
2023-01-29T18:05:54.465Z,2.71
2023-01-29T18:08:29.692Z,2.66
2023-01-29T18:10:57.973Z,2.75
2023-01-29T18:13:25.988Z,2.75
2023-01-29T18:15:54.252Z,2.62
2023-01-29T18:18:23.705Z,2.61
2023-01-29T18:20:53.048Z,2.54
2023-01-29T18:23:21.264Z,2.54
2023-01-29T18:25:49.159Z,2.61
2023-01-29T18:28:18.306Z,2.84
2023-01-29T18:30:47.567Z,2.85
2023-01-29T18:33:16.906Z,2.61
2023-01-29T18:35:45.154Z,2.61
2023-01-29T18:38:14.875Z,2.60
2023-01-29T18:40:42.658Z,2.54
2023-01-29T18:43:10.429Z,2.45
2023-01-29T18:45:38.338Z,2.42
2023-01-29T18:48:07.045Z,2.50
2023-01-29T18:50:35.427Z,2.48
2023-01-29T18:53:04.393Z,2.52
2023-01-29T18:55:33.956Z,2.39
2023-01-29T18:58:27.933Z,2.45
2023-01-29T19:00:49.675Z,2.37
2023-01-29T19:03:18.310Z,2.40
2023-01-29T19:05:46.249Z,2.45
2023-01-29T19:08:14.405Z,2.49
2023-01-29T19:10:43.597Z,2.54
2023-01-29T19:13:11.444Z,2.45
2023-01-29T19:15:43.453Z,2.41
2023-01-29T19:18:14.643Z,2.47
2023-01-29T19:20:42.962Z,2.45
2023-01-29T19:23:11.031Z,2.43
2023-01-29T19:25:39.339Z,2.36
2023-01-29T19:28:09.022Z,2.44
2023-01-29T19:30:37.154Z,2.44
2023-01-29T19:33:05.441Z,2.50
2023-01-29T19:35:34.054Z,2.49
2023-01-29T19:38:02.227Z,2.46
2023-01-29T19:40:30.125Z,2.48
2023-01-29T19:42:58.662Z,2.59
2023-01-29T19:45:49.183Z,2.53
2023-01-29T19:48:20.138Z,2.57
2023-01-29T19:50:53.009Z,2.59
2023-01-29T19:53:20.880Z,2.61
2023-01-29T19:55:48.784Z,2.56
2023-01-29T19:58:16.603Z,2.59
2023-01-29T20:00:45.719Z,2.58
2023-01-29T20:03:13.565Z,2.56
2023-01-29T20:05:41.464Z,2.52
2023-01-29T20:08:09.627Z,2.58
2023-01-29T20:10:37.614Z,2.46
2023-01-29T20:13:06.204Z,2.56
2023-01-29T20:15:34.388Z,2.48
2023-01-29T20:18:05.623Z,2.50
2023-01-29T20:20:33.729Z,2.49
2023-01-29T20:23:04.624Z,2.48
2023-01-29T20:25:32.643Z,2.57
2023-01-29T20:28:00.632Z,2.57
2023-01-29T20:30:28.588Z,2.57
2023-01-29T20:32:56.469Z,2.45
2023-01-29T20:35:25.809Z,2.48
2023-01-29T20:37:53.612Z,2.48
2023-01-29T20:40:21.495Z,2.53
2023-01-29T20:42:49.808Z,2.53
2023-01-29T20:45:18.144Z,2.50
2023-01-29T20:47:46.083Z,2.56
2023-01-29T20:50:16.106Z,2.46
2023-01-29T20:52:45.904Z,2.48
2023-01-29T20:55:14.489Z,2.46
2023-01-29T20:57:42.456Z,2.47
2023-01-29T21:00:12.878Z,2.39
2023-01-29T21:02:40.949Z,2.41
2023-01-29T21:05:09.163Z,2.41
2023-01-29T21:07:37.211Z,2.49
2023-01-29T21:10:07.324Z,2.53
2023-01-29T21:12:35.332Z,2.43
2023-01-29T21:15:03.322Z,2.46
2023-01-29T21:17:31.098Z,2.51
2023-01-29T21:19:58.854Z,2.44
2023-01-29T21:22:26.801Z,2.43
2023-01-29T21:24:54.638Z,2.54
2023-01-29T21:27:25.273Z,2.50
2023-01-29T21:29:53.125Z,2.56
2023-01-29T21:32:21.101Z,2.50
2023-01-29T21:34:50.521Z,2.46
2023-01-29T21:37:19.411Z,2.48
2023-01-29T21:39:47.290Z,2.53
2023-01-29T21:42:32.744Z,2.50
2023-01-29T21:45:01.865Z,2.52
2023-01-29T21:47:29.668Z,2.50
2023-01-29T21:49:57.612Z,2.53
2023-01-29T21:52:25.519Z,2.52
2023-01-29T21:54:53.405Z,2.49
2023-01-29T21:57:21.352Z,2.51
2023-01-29T21:59:52.852Z,2.57
2023-01-29T22:02:23.656Z,2.50
2023-01-29T22:04:52.292Z,2.39
2023-01-29T22:07:20.205Z,2.43
2023-01-29T22:09:48.267Z,2.34
2023-01-29T22:12:16.663Z,2.26
2023-01-29T22:14:44.736Z,2.37
2023-01-29T22:17:12.746Z,2.47
2023-01-29T22:19:42.980Z,2.35
2023-01-29T22:22:14.643Z,2.39
2023-01-29T22:24:44.754Z,2.45
2023-01-29T22:27:12.767Z,2.36
2023-01-29T22:29:40.608Z,2.33
2023-01-29T22:32:08.688Z,2.32
2023-01-29T22:34:36.845Z,2.34
2023-01-29T22:37:06.426Z,2.41
2023-01-29T22:39:34.304Z,2.39
2023-01-29T22:42:02.230Z,2.44
2023-01-29T22:44:30.188Z,2.45
2023-01-29T22:46:58.287Z,2.40
2023-01-29T22:49:27.921Z,2.42
2023-01-29T22:52:09.736Z,2.46
2023-01-29T22:54:40.345Z,2.43
2023-01-29T22:57:11.231Z,2.45
2023-01-29T22:59:40.027Z,2.46
2023-01-29T23:02:09.150Z,2.48
2023-01-29T23:04:37.154Z,2.44
2023-01-29T23:07:05.352Z,2.50
2023-01-29T23:09:33.154Z,2.46
2023-01-29T23:12:02.438Z,2.50
2023-01-29T23:14:30.360Z,2.46
2023-01-29T23:16:58.225Z,2.38
2023-01-29T23:19:27.210Z,2.33
2023-01-29T23:21:55.121Z,2.38
2023-01-29T23:24:23.241Z,2.31
2023-01-29T23:27:08.837Z,2.32
2023-01-29T23:29:38.336Z,2.39
2023-01-29T23:32:07.093Z,2.37
2023-01-29T23:34:35.253Z,2.40
2023-01-29T23:37:03.206Z,2.34
2023-01-29T23:39:30.940Z,2.39
2023-01-29T23:41:58.929Z,2.38
2023-01-29T23:44:26.707Z,2.34
2023-01-29T23:46:56.208Z,2.34
2023-01-29T23:49:24.215Z,2.26
2023-01-29T23:51:52.308Z,2.28
2023-01-29T23:54:20.149Z,2.43
2023-01-29T23:56:48.216Z,2.34
2023-01-29T23:59:16.120Z,2.28
